Flight Track Log - Related Links

Times and Time Zones

All times are in EDT time to prevent confusion due to time zone crossing. See the N1525W flight status page for this flight to view local times or setup timezone preferences in your user account.

Time Position Orientation Groundspeed Altitude Reporting Facility
EDT Latitude Longitude Course Direction KTS MPH feet Rate Location/Type
Wed 07:11:08 PM 43.1000 -78.9500 216° Southwest 83 96 900  Level Buffalo TRACON
Wed 07:12:14 PM 43.0833 -78.9667 216° Southwest 101 116 2,100 952 Climbing Buffalo TRACON
Wed 07:13:14 PM 43.0500 -78.9833 200° South 110 127 2,900 800 Climbing Buffalo TRACON
Wed 07:14:14 PM 43.0333 -79.0000 216° Southwest 111 128 3,700 850 Climbing Buffalo TRACON
Wed 07:15:14 PM 43.0000 -79.0167 200° South 117 135 4,600 850 Climbing Buffalo TRACON
Wed 07:16:14 PM 42.9667 -79.0333 200° South 125 144 5,400 750 Climbing Buffalo TRACON
Wed 07:17:14 PM 42.9333 -79.0500 200° South 121 139 6,100 650 Climbing Buffalo TRACON
Wed 07:18:14 PM 42.9000 -79.0667 200° South 123 142 6,700 650 Climbing Buffalo TRACON
Wed 07:19:14 PM 42.8667 -79.0833 200° South 126 145 7,400 600 Climbing Buffalo TRACON
Wed 07:20:14 PM 42.8333 -79.1000 200° South 133 153 7,900 143 Climbing Buffalo TRACON
Wed 07:21:20 PM 42.7833 -79.1333 206° Southwest 156 180 7,700 -381 Descending Buffalo TRACON
Wed 07:22:20 PM 42.7500 -79.1500 200° South 192 221 7,100 -550 Descending Buffalo TRACON
Wed 07:23:20 PM 42.7000 -79.1833 206° Southwest 188 216 6,600 -32 Descending Buffalo TRACON
Wed 07:25:00 PM 42.6307 -79.2100 196° South  Level FlightAware Approximate
Wed 07:32:00 PM 42.4005 -79.4363 239° Southwest  Level FlightAware Approximate
Wed 07:33:00 PM 42.3781 -79.4863 239° Southwest  Level FlightAware Approximate
Wed 07:34:00 PM 42.3557 -79.5363 239° Southwest  Level FlightAware Approximate
Wed 07:35:00 PM 42.3333 -79.5863 239° Southwest  Level FlightAware Approximate
Wed 07:36:00 PM 42.3108 -79.6362 239° Southwest  Level FlightAware Approximate
Wed 07:37:00 PM 42.2884 -79.6861 239° Southwest  Level FlightAware Approximate
Wed 07:38:00 PM 42.2659 -79.7360 239° Southwest  Level FlightAware Approximate
Wed 07:39:00 PM 42.2434 -79.7858 239° Southwest  Level FlightAware Approximate
Wed 07:40:00 PM 42.2209 -79.8356 239° Southwest  Level FlightAware Approximate
Wed 07:41:00 PM 42.1983 -79.8854 239° Southwest  Level FlightAware Approximate
Wed 07:42:00 PM 42.1758 -79.9351 239° Southwest  Level FlightAware Approximate
Wed 07:43:00 PM 42.1532 -79.9848 238° Southwest  Level FlightAware Approximate
Wed 07:44:00 PM 42.1306 -80.0344 238° Southwest  Level FlightAware Approximate
Wed 07:45:00 PM 42.1079 -80.0840 238° Southwest  Level FlightAware Approximate
Wed 07:46:00 PM 42.0853 -80.1336 238° Southwest  Level FlightAware Approximate
Wed 07:47:00 PM 42.0626 -80.1832 238° Southwest  Level FlightAware Approximate
Wed 07:48:00 PM 42.0399 -80.2327 238° Southwest  Level FlightAware Approximate
Wed 07:49:00 PM 42.0172 -80.2821 238° Southwest  Level FlightAware Approximate
Wed 07:50:00 PM 41.9875 -80.3243 226° Southwest  Level FlightAware Approximate
Wed 07:51:00 PM 41.9576 -80.3662 226° Southwest  Level FlightAware Approximate
Wed 07:52:00 PM 41.9276 -80.4081 226° Southwest  Level FlightAware Approximate
Wed 07:53:00 PM 41.8977 -80.4499 226° Southwest  Level FlightAware Approximate
Wed 07:54:00 PM 41.8677 -80.4917 226° Southwest  Level FlightAware Approximate
Wed 07:55:00 PM 41.8377 -80.5335 226° Southwest  Level FlightAware Approximate
Wed 07:56:00 PM 41.8078 -80.5752 226° Southwest  Level FlightAware Approximate
Wed 07:56:27 PM 41.7139 -80.7194 226° Southwest 173 199 6,000  Level Cleveland Center
Wed 07:57:00 PM 41.7777 -80.6169 226° Southwest  Level FlightAware Approximate
Wed 07:57:58 PM 41.6639 -80.7917 227° Southwest 174 200 6,000  Level Cleveland Center
Wed 07:58:00 PM 41.7477 -80.6585 226° Southwest  Level FlightAware Approximate
Wed 07:58:53 PM 41.6408 -80.8414 238° Southwest 174 200 6,000  Level Cleveland Center
Wed 07:59:00 PM 41.7177 -80.7001 226° Southwest  Level FlightAware Approximate
Wed 07:59:54 PM 41.6386 -80.9028 267° West 168 193 6,000  Level Cleveland Center
Wed 08:00:00 PM 41.6876 -80.7417 226° Southwest  Level FlightAware Approximate
Wed 08:00:55 PM 41.6278 -80.9664 257° West 191 220 5,100  Level Cleveland Center
Wed 08:01:00 PM 41.6576 -80.7832 226° Southwest  Level FlightAware Approximate
Wed 08:01:56 PM 41.6194 -81.0303 260° West 169 194 4,500  Level Cleveland Center
Wed 08:02:50 PM 41.6169 -81.0858 267° West 170 196 3,700 -744 Descending Cleveland Center
Wed 08:03:57 PM 41.6042 -81.1553 256° West 167 192 3,000 -347 Descending Cleveland Center
Wed 08:04:51 PM 41.6039 -81.2053 270° West 133 153 3,000  Level Cleveland Center
Wed 08:05:52 PM 41.5975 -81.2522 260° West 138 159 3,000  Level Cleveland Center
Wed 08:06:53 PM 41.5867 -81.3022 254° West 133 153 3,000 -50 Level Cleveland Center
Wed 08:07:53 PM 41.5822 -81.3492 263° West 133 153 2,900 -397 Descending Cleveland Center
Wed 08:08:54 PM 41.5756 -81.4019 260° West 153 176 2,200 -443 Descending Cleveland Center
Wed 08:09:55 PM 41.5564 -81.4489 241° Southwest 145 167 2,000 -246 Descending Cleveland Center
Wed 08:10:56 PM 41.5311 -81.4792 222° Southwest 118 136 1,700 -298 Descending Cleveland Center
Wed 08:11:56 PM 41.5392 -81.5097 289° West 81 93 1,400 -300 Descending Cleveland Center
Wed 08:13:00 PM 41.5500 -81.4833 37° Northeast  Level FlightAware Approximate
Wed 08:20:00 PM 41.5651 -81.4864 37° Northeast  Level Estimated
Wed 08:21:00 PM 41.5651 -81.4864 37° Northeast  Level Estimated

Login

Don't have an account? Register now (free) for customized features, flight alerts, and more!